METAR AND TAF INFORMATION
METAR FOR WARR
ADDS - METARS form results

(0947 UTC 16 October 2018)
Data provider http://aviationweather.gov/metar/data/
 
METAR text: WARR 160930Z 10007KT 060V120 9999 FEW020 33/18 Q1008 NOSIG
Conditions at: WARR (JUANDA , ID) observed 0930 UTC 16 October 2018
Temperature: 33.0°C (91°F)
Dewpoint: 18.0°C (64°F) [RH = 41%]
Pressure (altimeter): 29.76 inches Hg (1008.0 mb)
Winds: from the E (100 degrees) at 8 MPH (7 knots; 3.6 m/s)
Visibility: 6 or more miles (10+ km)
Ceiling: at least 12,000 feet AGL
Clouds: few clouds at 2000 feet AGL
Weather: no significant weather observed at this time

METAR text: WARR 160900Z 07008KT 9999 FEW020 34/18 Q1008 NOSIG
Conditions at: WARR (JUANDA , ID) observed 0900 UTC 16 October 2018
Temperature: 34.0°C (93°F)
Dewpoint: 18.0°C (64°F) [RH = 39%]
Pressure (altimeter): 29.76 inches Hg (1008.0 mb)
Winds: from the ENE (70 degrees) at 9 MPH (8 knots; 4.1 m/s)
Visibility: 6 or more miles (10+ km)
Ceiling: at least 12,000 feet AGL
Clouds: few clouds at 2000 feet AGL
Weather: no significant weather observed at this time

Forecast for: WARR (JUANDA , ID)
Text: TAF WARR 160500Z 1606/1706 09012KT 9999 FEW020
Forecast period: 0600 to 2000 UTC 16 October 2018
Forecast type: FROM: standard forecast or significant change
Winds: from the E (90 degrees) at 14 MPH (12 knots; 6.2 m/s)
Visibility: 6 or more miles 10+ km)
Ceiling: at least 12,000 feet AGL
Clouds: few clouds at 2000 feet AGL
Weather: no significant weather forecast for this period
Text: BECMG 1620/1622 26005KT 4000 HZ
Forecast period: 2000 UTC 16 October 2018 to 0600 UTC 17 October 2018
Forecast type: BECOMING: Conditions expected to become as follows by 2200 UTC 16 October 2018
Winds: from the W (260 degrees) at 6 MPH (5 knots; 2.6 m/s)
Visibility: 2.49 miles (4.01 km)
Ceiling: at least 12,000 feet AGL
Clouds: few clouds at 2000 feet AGL
Weather: HZ  (haze)

 AIRPORT MAP

 RUNWAY INFORMATION
Runway 10 Runway length 9843 ft Runway width 148 ft
Runway elevation 11 ft Runway displaced threshold 0 ft Runway heading 99
Runway 28 Runway length 9843 ft Runway width 148 ft
Runway elevation 8 ft Runway displaced threshold 0 ft Runway heading 279

 AIRPORT FREQUENCIES
Type ATIS Name ATIS Frequency 128.2 MHZ
Type DIR Name Surabaya D Frequency 123.2 MHZ
Type DIR Name Surabaya D Frequency 125.1 MHZ
Type SMC Name Ground Con Frequency 119.15 MHZ
Type TCA Name Surabaya C Frequency 123.55 MHZ
Type TCA Name Surabaya C Frequency 124 MHZ
Type TWR Name Tower - Se Frequency 118.1 MHZ
Type TWR Name Tower - Pr Frequency 118.3 MHZ

 AIRPORT NEAR NAVIGATION AIDS
Type NDB Name Surabaya Frequency 325 KHZ
Type VOR-DME Name Surabaya Frequency 113400 KHZ
Type NDB Name Surabaya Frequency 400 KHZ



Copyright © 2011 - 2018 BirgenAir Virtual Airlines. All rights reserved. Developed by Goktug Unver